sensor_id;sensor_type;location;lat;lon;timestamp;temperature;humidity
4651;DHT22;2338;49.602;8.722;2022-10-22T00:00:40;15.60;99.90
4651;DHT22;2338;49.602;8.722;2022-10-22T00:03:26;15.60;99.90
4651;DHT22;2338;49.602;8.722;2022-10-22T00:06:11;15.60;99.90
4651;DHT22;2338;49.602;8.722;2022-10-22T00:08:57;15.60;99.90
4651;DHT22;2338;49.602;8.722;2022-10-22T00:11:43;15.60;99.90
4651;DHT22;2338;49.602;8.722;2022-10-22T00:14:30;15.60;99.90
4651;DHT22;2338;49.602;8.722;2022-10-22T00:17:16;15.60;99.90
4651;DHT22;2338;49.602;8.722;2022-10-22T00:20:02;15.70;99.90
4651;DHT22;2338;49.602;8.722;2022-10-22T00:22:48;15.70;99.90
4651;DHT22;2338;49.602;8.722;2022-10-22T00:25:34;15.60;99.90
4651;DHT22;2338;49.602;8.722;2022-10-22T00:28:20;15.50;99.90
4651;DHT22;2338;49.602;8.722;2022-10-22T00:31:07;15.40;99.90
4651;DHT22;2338;49.602;8.722;2022-10-22T00:33:53;15.50;99.90
4651;DHT22;2338;49.602;8.722;2022-10-22T00:36:38;15.50;99.90
4651;DHT22;2338;49.602;8.722;2022-10-22T00:39:26;15.50;99.90
4651;DHT22;2338;49.602;8.722;2022-10-22T00:42:16;15.60;99.90
4651;DHT22;2338;49.602;8.722;2022-10-22T00:45:20;15.60;99.90
4651;DHT22;2338;49.602;8.722;2022-10-22T00:48:09;15.70;99.90
4651;DHT22;2338;49.602;8.722;2022-10-22T00:50:57;15.70;99.90
4651;DHT22;2338;49.602;8.722;2022-10-22T00:53:46;15.70;99.90
4651;DHT22;2338;49.602;8.722;2022-10-22T00:56:33;15.80;99.90
4651;DHT22;2338;49.602;8.722;2022-10-22T00:59:18;15.80;99.90
4651;DHT22;2338;49.602;8.722;2022-10-22T01:02:04;15.80;99.90
4651;DHT22;2338;49.602;8.722;2022-10-22T01:04:51;15.90;99.90
4651;DHT22;2338;49.602;8.722;2022-10-22T01:07:40;15.80;99.90
4651;DHT22;2338;49.602;8.722;2022-10-22T01:10:35;15.80;99.90
4651;DHT22;2338;49.602;8.722;2022-10-22T01:13:31;15.70;99.90
4651;DHT22;2338;49.602;8.722;2022-10-22T01:16:26;15.70;99.90
4651;DHT22;2338;49.602;8.722;2022-10-22T01:19:38;15.70;99.90
4651;DHT22;2338;49.602;8.722;2022-10-22T01:22:31;15.60;99.90
4651;DHT22;2338;49.602;8.722;2022-10-22T01:25:26;15.60;99.90
4651;DHT22;2338;49.602;8.722;2022-10-22T01:28:22;15.60;99.90
4651;DHT22;2338;49.602;8.722;2022-10-22T01:31:12;15.50;99.90
4651;DHT22;2338;49.602;8.722;2022-10-22T01:34:00;15.50;99.90
4651;DHT22;2338;49.602;8.722;2022-10-22T01:36:47;15.50;99.90
4651;DHT22;2338;49.602;8.722;2022-10-22T01:39:36;15.50;99.90
4651;DHT22;2338;49.602;8.722;2022-10-22T01:42:23;15.40;99.90
4651;DHT22;2338;49.602;8.722;2022-10-22T01:45:12;15.50;99.90
4651;DHT22;2338;49.602;8.722;2022-10-22T01:48:08;15.50;99.90
4651;DHT22;2338;49.602;8.722;2022-10-22T01:54:24;15.50;99.90
4651;DHT22;2338;49.602;8.722;2022-10-22T01:57:18;15.40;99.90
4651;DHT22;2338;49.602;8.722;2022-10-22T02:00:09;15.50;99.90
4651;DHT22;2338;49.602;8.722;2022-10-22T02:03:02;15.50;99.90
4651;DHT22;2338;49.602;8.722;2022-10-22T02:05:53;15.40;99.90
4651;DHT22;2338;49.602;8.722;2022-10-22T02:08:40;15.40;99.90
4651;DHT22;2338;49.602;8.722;2022-10-22T02:11:27;15.40;99.90
4651;DHT22;2338;49.602;8.722;2022-10-22T02:14:15;15.40;99.90
4651;DHT22;2338;49.602;8.722;2022-10-22T02:17:02;15.30;99.90
4651;DHT22;2338;49.602;8.722;2022-10-22T02:19:53;15.30;99.90
4651;DHT22;2338;49.602;8.722;2022-10-22T02:22:40;15.30;99.90
4651;DHT22;2338;49.602;8.722;2022-10-22T02:25:29;15.30;99.90
4651;DHT22;2338;49.602;8.722;2022-10-22T02:28:18;15.30;99.90
4651;DHT22;2338;49.602;8.722;2022-10-22T02:31:13;15.20;99.90
4651;DHT22;2338;49.602;8.722;2022-10-22T02:34:04;15.30;99.90
4651;DHT22;2338;49.602;8.722;2022-10-22T02:36:53;15.20;99.90
4651;DHT22;2338;49.602;8.722;2022-10-22T02:39:40;15.10;99.90
4651;DHT22;2338;49.602;8.722;2022-10-22T02:42:27;15.20;99.90
4651;DHT22;2338;49.602;8.722;2022-10-22T02:45:15;15.20;99.90
4651;DHT22;2338;49.602;8.722;2022-10-22T02:48:01;15.20;99.90
4651;DHT22;2338;49.602;8.722;2022-10-22T02:50:47;15.20;99.90
4651;DHT22;2338;49.602;8.722;2022-10-22T02:53:34;15.20;99.90
4651;DHT22;2338;49.602;8.722;2022-10-22T02:56:20;15.30;99.90
4651;DHT22;2338;49.602;8.722;2022-10-22T02:59:05;15.30;99.90
4651;DHT22;2338;49.602;8.722;2022-10-22T03:01:51;15.20;99.90
4651;DHT22;2338;49.602;8.722;2022-10-22T03:04:36;15.10;99.90
4651;DHT22;2338;49.602;8.722;2022-10-22T03:07:22;15.10;99.90
4651;DHT22;2338;49.602;8.722;2022-10-22T03:10:09;15.10;99.90
4651;DHT22;2338;49.602;8.722;2022-10-22T03:12:55;15.10;99.90
4651;DHT22;2338;49.602;8.722;2022-10-22T03:15:40;15.10;99.90
4651;DHT22;2338;49.602;8.722;2022-10-22T03:18:26;15.10;99.90
4651;DHT22;2338;49.602;8.722;2022-10-22T03:21:18;14.90;99.90
4651;DHT22;2338;49.602;8.722;2022-10-22T03:24:09;14.90;99.90
4651;DHT22;2338;49.602;8.722;2022-10-22T03:26:57;14.90;99.90
4651;DHT22;2338;49.602;8.722;2022-10-22T03:29:43;14.90;99.90
4651;DHT22;2338;49.602;8.722;2022-10-22T03:32:29;14.90;99.90
4651;DHT22;2338;49.602;8.722;2022-10-22T03:35:15;14.90;99.90
4651;DHT22;2338;49.602;8.722;2022-10-22T03:38:01;14.90;99.90
4651;DHT22;2338;49.602;8.722;2022-10-22T03:40:46;14.80;99.90
4651;DHT22;2338;49.602;8.722;2022-10-22T03:43:35;14.70;99.90
4651;DHT22;2338;49.602;8.722;2022-10-22T03:46:22;14.80;99.90
4651;DHT22;2338;49.602;8.722;2022-10-22T03:49:07;14.80;99.90
4651;DHT22;2338;49.602;8.722;2022-10-22T03:51:53;14.70;99.90
4651;DHT22;2338;49.602;8.722;2022-10-22T03:54:39;14.80;99.90
4651;DHT22;2338;49.602;8.722;2022-10-22T03:57:25;14.60;99.90
4651;DHT22;2338;49.602;8.722;2022-10-22T04:00:13;14.40;99.90
4651;DHT22;2338;49.602;8.722;2022-10-22T04:02:58;14.40;99.90
4651;DHT22;2338;49.602;8.722;2022-10-22T04:05:44;14.40;99.90
4651;DHT22;2338;49.602;8.722;2022-10-22T04:08:30;14.50;99.90
4651;DHT22;2338;49.602;8.722;2022-10-22T04:11:16;14.60;99.90
4651;DHT22;2338;49.602;8.722;2022-10-22T04:14:01;14.50;99.90
4651;DHT22;2338;49.602;8.722;2022-10-22T04:16:49;14.50;99.90
4651;DHT22;2338;49.602;8.722;2022-10-22T04:19:34;14.50;99.90
4651;DHT22;2338;49.602;8.722;2022-10-22T04:22:20;14.50;99.90
4651;DHT22;2338;49.602;8.722;2022-10-22T04:25:06;14.50;99.90
4651;DHT22;2338;49.602;8.722;2022-10-22T04:27:52;14.50;99.90
4651;DHT22;2338;49.602;8.722;2022-10-22T04:30:37;14.30;99.90
4651;DHT22;2338;49.602;8.722;2022-10-22T04:33:24;14.20;99.90
4651;DHT22;2338;49.602;8.722;2022-10-22T04:36:12;14.10;99.90
4651;DHT22;2338;49.602;8.722;2022-10-22T04:39:00;14.10;99.90
4651;DHT22;2338;49.602;8.722;2022-10-22T04:41:45;14.00;99.90
4651;DHT22;2338;49.602;8.722;2022-10-22T04:44:31;13.90;99.90
4651;DHT22;2338;49.602;8.722;2022-10-22T04:47:16;13.90;99.90
4651;DHT22;2338;49.602;8.722;2022-10-22T04:50:04;14.00;99.90
4651;DHT22;2338;49.602;8.722;2022-10-22T04:52:50;13.90;99.90
4651;DHT22;2338;49.602;8.722;2022-10-22T04:55:35;13.80;99.90
4651;DHT22;2338;49.602;8.722;2022-10-22T04:58:21;13.80;99.90
4651;DHT22;2338;49.602;8.722;2022-10-22T05:01:11;13.80;99.90
4651;DHT22;2338;49.602;8.722;2022-10-22T05:03:58;13.80;99.90
4651;DHT22;2338;49.602;8.722;2022-10-22T05:06:46;13.80;99.90
4651;DHT22;2338;49.602;8.722;2022-10-22T05:09:31;13.80;99.90
4651;DHT22;2338;49.602;8.722;2022-10-22T05:12:17;13.80;99.90
4651;DHT22;2338;49.602;8.722;2022-10-22T05:15:03;13.90;99.90
4651;DHT22;2338;49.602;8.722;2022-10-22T05:17:49;13.90;99.90
4651;DHT22;2338;49.602;8.722;2022-10-22T05:20:38;13.90;99.90
4651;DHT22;2338;49.602;8.722;2022-10-22T05:23:25;13.90;99.90
4651;DHT22;2338;49.602;8.722;2022-10-22T05:26:12;14.00;99.90
4651;DHT22;2338;49.602;8.722;2022-10-22T05:28:58;14.10;99.90
4651;DHT22;2338;49.602;8.722;2022-10-22T05:31:43;14.20;99.90
4651;DHT22;2338;49.602;8.722;2022-10-22T05:34:29;14.20;99.90
4651;DHT22;2338;49.602;8.722;2022-10-22T05:37:16;14.10;99.90
4651;DHT22;2338;49.602;8.722;2022-10-22T05:40:04;14.20;99.90
4651;DHT22;2338;49.602;8.722;2022-10-22T05:42:50;14.20;99.90
4651;DHT22;2338;49.602;8.722;2022-10-22T05:45:36;14.30;99.90
4651;DHT22;2338;49.602;8.722;2022-10-22T05:48:21;14.40;99.90
4651;DHT22;2338;49.602;8.722;2022-10-22T05:51:09;14.40;99.90
4651;DHT22;2338;49.602;8.722;2022-10-22T05:53:56;14.40;99.90
4651;DHT22;2338;49.602;8.722;2022-10-22T05:56:44;14.50;99.90
4651;DHT22;2338;49.602;8.722;2022-10-22T05:59:29;14.40;99.90
4651;DHT22;2338;49.602;8.722;2022-10-22T06:02:15;14.50;99.90
4651;DHT22;2338;49.602;8.722;2022-10-22T06:05:01;14.50;99.90
4651;DHT22;2338;49.602;8.722;2022-10-22T06:07:46;14.50;99.90
4651;DHT22;2338;49.602;8.722;2022-10-22T06:10:32;14.40;99.90
4651;DHT22;2338;49.602;8.722;2022-10-22T06:13:19;14.40;99.90
4651;DHT22;2338;49.602;8.722;2022-10-22T06:16:06;14.40;99.90
4651;DHT22;2338;49.602;8.722;2022-10-22T06:18:52;14.50;99.90
4651;DHT22;2338;49.602;8.722;2022-10-22T06:21:38;14.50;99.90
4651;DHT22;2338;49.602;8.722;2022-10-22T06:24:23;14.40;99.90
4651;DHT22;2338;49.602;8.722;2022-10-22T06:27:08;14.40;99.90
4651;DHT22;2338;49.602;8.722;2022-10-22T06:29:56;14.30;99.90
4651;DHT22;2338;49.602;8.722;2022-10-22T06:32:41;14.30;99.90
4651;DHT22;2338;49.602;8.722;2022-10-22T06:35:27;14.20;99.90
4651;DHT22;2338;49.602;8.722;2022-10-22T06:38:12;14.20;99.90
4651;DHT22;2338;49.602;8.722;2022-10-22T06:41:01;14.20;99.90
4651;DHT22;2338;49.602;8.722;2022-10-22T06:43:47;14.20;99.90
4651;DHT22;2338;49.602;8.722;2022-10-22T06:46:34;14.30;99.90
4651;DHT22;2338;49.602;8.722;2022-10-22T06:49:20;14.30;99.90
4651;DHT22;2338;49.602;8.722;2022-10-22T06:52:05;14.30;99.90
4651;DHT22;2338;49.602;8.722;2022-10-22T06:54:51;14.40;99.90
4651;DHT22;2338;49.602;8.722;2022-10-22T06:57:37;14.40;99.90
4651;DHT22;2338;49.602;8.722;2022-10-22T07:00:22;14.50;99.90
4651;DHT22;2338;49.602;8.722;2022-10-22T07:03:11;14.50;99.90
4651;DHT22;2338;49.602;8.722;2022-10-22T07:05:59;14.50;99.90
4651;DHT22;2338;49.602;8.722;2022-10-22T07:08:45;14.50;99.90
4651;DHT22;2338;49.602;8.722;2022-10-22T07:11:38;14.50;99.90
4651;DHT22;2338;49.602;8.722;2022-10-22T07:14:24;14.50;99.90
4651;DHT22;2338;49.602;8.722;2022-10-22T07:17:10;14.50;99.90
4651;DHT22;2338;49.602;8.722;2022-10-22T07:19:57;14.60;99.90
4651;DHT22;2338;49.602;8.722;2022-10-22T07:22:43;14.70;99.90
4651;DHT22;2338;49.602;8.722;2022-10-22T07:25:28;14.70;99.90
4651;DHT22;2338;49.602;8.722;2022-10-22T07:28:14;14.80;99.90
4651;DHT22;2338;49.602;8.722;2022-10-22T07:31:00;14.80;99.90
4651;DHT22;2338;49.602;8.722;2022-10-22T07:33:45;14.80;99.90
4651;DHT22;2338;49.602;8.722;2022-10-22T07:36:33;14.90;99.90
4651;DHT22;2338;49.602;8.722;2022-10-22T07:39:18;15.00;99.90
4651;DHT22;2338;49.602;8.722;2022-10-22T07:42:04;15.10;99.90
4651;DHT22;2338;49.602;8.722;2022-10-22T07:44:50;15.10;99.90
4651;DHT22;2338;49.602;8.722;2022-10-22T07:47:36;15.10;99.90
4651;DHT22;2338;49.602;8.722;2022-10-22T07:50:21;15.20;99.90
4651;DHT22;2338;49.602;8.722;2022-10-22T07:53:08;15.20;99.90
4651;DHT22;2338;49.602;8.722;2022-10-22T07:55:53;15.10;99.90
4651;DHT22;2338;49.602;8.722;2022-10-22T07:58:40;15.20;99.90
4651;DHT22;2338;49.602;8.722;2022-10-22T08:01:25;15.20;99.90
4651;DHT22;2338;49.602;8.722;2022-10-22T08:04:11;15.30;99.90
4651;DHT22;2338;49.602;8.722;2022-10-22T08:06:57;15.30;99.90
4651;DHT22;2338;49.602;8.722;2022-10-22T08:09:44;15.30;99.90
4651;DHT22;2338;49.602;8.722;2022-10-22T08:12:29;15.40;99.90
4651;DHT22;2338;49.602;8.722;2022-10-22T08:15:15;15.40;99.90
4651;DHT22;2338;49.602;8.722;2022-10-22T08:18:00;15.40;99.90
4651;DHT22;2338;49.602;8.722;2022-10-22T08:20:46;15.40;99.90
4651;DHT22;2338;49.602;8.722;2022-10-22T08:23:32;15.40;99.90
4651;DHT22;2338;49.602;8.722;2022-10-22T08:26:19;15.60;99.90
4651;DHT22;2338;49.602;8.722;2022-10-22T08:29:05;15.60;99.90
4651;DHT22;2338;49.602;8.722;2022-10-22T08:31:51;15.70;99.90
4651;DHT22;2338;49.602;8.722;2022-10-22T08:34:37;15.80;99.90
4651;DHT22;2338;49.602;8.722;2022-10-22T08:37:23;15.80;99.90
4651;DHT22;2338;49.602;8.722;2022-10-22T08:40:10;15.90;99.90
4651;DHT22;2338;49.602;8.722;2022-10-22T08:43:31;15.90;99.90
4651;DHT22;2338;49.602;8.722;2022-10-22T08:46:38;16.00;99.90
4651;DHT22;2338;49.602;8.722;2022-10-22T08:49:30;16.10;99.90
4651;DHT22;2338;49.602;8.722;2022-10-22T08:52:19;16.20;99.90
4651;DHT22;2338;49.602;8.722;2022-10-22T08:55:11;16.30;99.90
4651;DHT22;2338;49.602;8.722;2022-10-22T08:58:02;16.40;99.90
4651;DHT22;2338;49.602;8.722;2022-10-22T09:00:57;16.50;99.90
4651;DHT22;2338;49.602;8.722;2022-10-22T09:03:48;16.50;99.90
4651;DHT22;2338;49.602;8.722;2022-10-22T09:06:36;16.60;99.90
4651;DHT22;2338;49.602;8.722;2022-10-22T09:09:26;16.60;99.90
4651;DHT22;2338;49.602;8.722;2022-10-22T09:12:13;16.70;99.90
4651;DHT22;2338;49.602;8.722;2022-10-22T09:15:00;16.70;99.90
4651;DHT22;2338;49.602;8.722;2022-10-22T09:17:57;16.80;99.90
4651;DHT22;2338;49.602;8.722;2022-10-22T09:20:49;16.90;99.90
4651;DHT22;2338;49.602;8.722;2022-10-22T09:23:50;16.90;99.90
4651;DHT22;2338;49.602;8.722;2022-10-22T09:26:40;17.10;99.90
4651;DHT22;2338;49.602;8.722;2022-10-22T09:29:31;17.10;99.90
4651;DHT22;2338;49.602;8.722;2022-10-22T09:32:17;17.30;99.90
4651;DHT22;2338;49.602;8.722;2022-10-22T09:35:09;17.30;99.90
4651;DHT22;2338;49.602;8.722;2022-10-22T09:37:56;17.40;99.90
4651;DHT22;2338;49.602;8.722;2022-10-22T09:40:43;17.60;99.90
4651;DHT22;2338;49.602;8.722;2022-10-22T09:43:28;17.60;99.90
4651;DHT22;2338;49.602;8.722;2022-10-22T09:46:16;17.70;99.90
4651;DHT22;2338;49.602;8.722;2022-10-22T09:49:05;17.80;99.90
4651;DHT22;2338;49.602;8.722;2022-10-22T09:51:56;18.00;99.90
4651;DHT22;2338;49.602;8.722;2022-10-22T09:54:42;18.10;99.90
4651;DHT22;2338;49.602;8.722;2022-10-22T09:57:28;18.30;99.90
4651;DHT22;2338;49.602;8.722;2022-10-22T10:00:18;18.50;99.90
4651;DHT22;2338;49.602;8.722;2022-10-22T10:03:03;18.50;99.90
4651;DHT22;2338;49.602;8.722;2022-10-22T10:05:53;18.60;99.90
4651;DHT22;2338;49.602;8.722;2022-10-22T10:08:40;18.80;99.90
4651;DHT22;2338;49.602;8.722;2022-10-22T10:11:30;19.00;99.90
4651;DHT22;2338;49.602;8.722;2022-10-22T10:14:23;19.10;99.90
4651;DHT22;2338;49.602;8.722;2022-10-22T10:17:20;19.10;99.90
4651;DHT22;2338;49.602;8.722;2022-10-22T10:20:21;19.40;99.90
4651;DHT22;2338;49.602;8.722;2022-10-22T10:23:13;19.50;99.90
4651;DHT22;2338;49.602;8.722;2022-10-22T10:26:08;19.40;99.90
4651;DHT22;2338;49.602;8.722;2022-10-22T10:29:11;19.30;99.90
4651;DHT22;2338;49.602;8.722;2022-10-22T10:32:11;19.20;99.90
4651;DHT22;2338;49.602;8.722;2022-10-22T10:35:06;19.20;99.90
4651;DHT22;2338;49.602;8.722;2022-10-22T10:38:13;19.30;99.90
4651;DHT22;2338;49.602;8.722;2022-10-22T10:41:15;19.40;99.90
4651;DHT22;2338;49.602;8.722;2022-10-22T10:44:21;19.60;99.90
4651;DHT22;2338;49.602;8.722;2022-10-22T10:47:25;19.60;99.90
4651;DHT22;2338;49.602;8.722;2022-10-22T10:50:19;19.70;99.90
4651;DHT22;2338;49.602;8.722;2022-10-22T10:53:13;19.50;99.90
4651;DHT22;2338;49.602;8.722;2022-10-22T10:56:08;19.50;99.90
4651;DHT22;2338;49.602;8.722;2022-10-22T10:59:05;19.40;99.90
4651;DHT22;2338;49.602;8.722;2022-10-22T11:02:06;19.40;99.90
4651;DHT22;2338;49.602;8.722;2022-10-22T11:05:09;19.60;99.90
4651;DHT22;2338;49.602;8.722;2022-10-22T11:08:00;19.80;99.90
4651;DHT22;2338;49.602;8.722;2022-10-22T11:10:50;19.80;99.90
4651;DHT22;2338;49.602;8.722;2022-10-22T11:13:42;19.80;99.90
4651;DHT22;2338;49.602;8.722;2022-10-22T11:16:33;19.80;99.90
4651;DHT22;2338;49.602;8.722;2022-10-22T11:19:24;19.70;99.90
4651;DHT22;2338;49.602;8.722;2022-10-22T11:22:15;19.60;99.90
4651;DHT22;2338;49.602;8.722;2022-10-22T11:25:05;19.60;99.90
4651;DHT22;2338;49.602;8.722;2022-10-22T11:28:00;19.40;99.90
4651;DHT22;2338;49.602;8.722;2022-10-22T11:30:54;19.40;99.90
4651;DHT22;2338;49.602;8.722;2022-10-22T11:33:49;19.40;99.90
4651;DHT22;2338;49.602;8.722;2022-10-22T11:36:37;19.20;99.90
4651;DHT22;2338;49.602;8.722;2022-10-22T11:39:29;19.20;99.90
4651;DHT22;2338;49.602;8.722;2022-10-22T11:42:19;19.10;99.90
4651;DHT22;2338;49.602;8.722;2022-10-22T11:45:25;19.00;99.90
4651;DHT22;2338;49.602;8.722;2022-10-22T11:48:17;18.90;99.90
4651;DHT22;2338;49.602;8.722;2022-10-22T11:51:33;19.00;99.90
4651;DHT22;2338;49.602;8.722;2022-10-22T11:54:37;19.10;99.90
4651;DHT22;2338;49.602;8.722;2022-10-22T11:57:28;19.30;99.90
4651;DHT22;2338;49.602;8.722;2022-10-22T12:00:36;19.40;99.90
4651;DHT22;2338;49.602;8.722;2022-10-22T12:03:38;19.50;99.90
4651;DHT22;2338;49.602;8.722;2022-10-22T12:06:24;19.70;99.90
4651;DHT22;2338;49.602;8.722;2022-10-22T12:09:10;19.70;99.90
4651;DHT22;2338;49.602;8.722;2022-10-22T12:12:12;19.70;99.90
4651;DHT22;2338;49.602;8.722;2022-10-22T12:14:58;19.70;99.90
4651;DHT22;2338;49.602;8.722;2022-10-22T12:17:46;19.50;99.90
4651;DHT22;2338;49.602;8.722;2022-10-22T12:20:32;19.40;99.90
4651;DHT22;2338;49.602;8.722;2022-10-22T12:23:23;19.20;99.90
4651;DHT22;2338;49.602;8.722;2022-10-22T12:26:22;19.20;99.90
4651;DHT22;2338;49.602;8.722;2022-10-22T12:29:10;19.20;99.90
4651;DHT22;2338;49.602;8.722;2022-10-22T12:32:00;19.20;99.90
4651;DHT22;2338;49.602;8.722;2022-10-22T12:34:47;19.20;99.90
4651;DHT22;2338;49.602;8.722;2022-10-22T12:37:35;19.30;99.90
4651;DHT22;2338;49.602;8.722;2022-10-22T12:40:23;19.30;99.90
4651;DHT22;2338;49.602;8.722;2022-10-22T12:43:11;19.20;99.90
4651;DHT22;2338;49.602;8.722;2022-10-22T12:45:58;19.20;99.90
4651;DHT22;2338;49.602;8.722;2022-10-22T12:48:45;19.10;99.90
4651;DHT22;2338;49.602;8.722;2022-10-22T12:51:31;19.00;99.90
4651;DHT22;2338;49.602;8.722;2022-10-22T12:54:25;19.10;99.90
4651;DHT22;2338;49.602;8.722;2022-10-22T12:57:13;19.20;99.90
4651;DHT22;2338;49.602;8.722;2022-10-22T12:59:59;19.20;99.90
4651;DHT22;2338;49.602;8.722;2022-10-22T13:02:45;19.20;99.90
4651;DHT22;2338;49.602;8.722;2022-10-22T13:05:32;19.20;99.90
4651;DHT22;2338;49.602;8.722;2022-10-22T13:08:26;19.20;99.90
4651;DHT22;2338;49.602;8.722;2022-10-22T13:11:19;19.20;99.90
4651;DHT22;2338;49.602;8.722;2022-10-22T13:14:17;19.20;99.90
4651;DHT22;2338;49.602;8.722;2022-10-22T13:17:09;19.30;99.90
4651;DHT22;2338;49.602;8.722;2022-10-22T13:20:00;19.10;99.90
4651;DHT22;2338;49.602;8.722;2022-10-22T13:22:56;19.10;99.90
4651;DHT22;2338;49.602;8.722;2022-10-22T13:25:56;19.20;99.90
4651;DHT22;2338;49.602;8.722;2022-10-22T13:28:50;19.30;99.90
4651;DHT22;2338;49.602;8.722;2022-10-22T13:31:36;19.20;99.90
4651;DHT22;2338;49.602;8.722;2022-10-22T13:34:23;19.40;99.90
4651;DHT22;2338;49.602;8.722;2022-10-22T13:37:09;19.40;99.90
4651;DHT22;2338;49.602;8.722;2022-10-22T13:39:55;19.50;99.90
4651;DHT22;2338;49.602;8.722;2022-10-22T13:42:40;19.40;99.90
4651;DHT22;2338;49.602;8.722;2022-10-22T13:45:28;19.30;99.90
4651;DHT22;2338;49.602;8.722;2022-10-22T13:48:15;19.20;99.90
4651;DHT22;2338;49.602;8.722;2022-10-22T13:51:03;19.00;99.90
4651;DHT22;2338;49.602;8.722;2022-10-22T13:53:50;18.80;99.90
4651;DHT22;2338;49.602;8.722;2022-10-22T13:56:37;18.70;99.90
4651;DHT22;2338;49.602;8.722;2022-10-22T13:59:23;18.60;99.90
4651;DHT22;2338;49.602;8.722;2022-10-22T14:02:10;18.50;99.90
4651;DHT22;2338;49.602;8.722;2022-10-22T14:04:56;18.40;99.90
4651;DHT22;2338;49.602;8.722;2022-10-22T14:07:46;18.30;99.90
4651;DHT22;2338;49.602;8.722;2022-10-22T14:10:32;18.30;99.90
4651;DHT22;2338;49.602;8.722;2022-10-22T14:13:18;18.30;99.90
4651;DHT22;2338;49.602;8.722;2022-10-22T14:16:06;18.30;99.90
4651;DHT22;2338;49.602;8.722;2022-10-22T14:18:54;18.30;99.90
4651;DHT22;2338;49.602;8.722;2022-10-22T14:21:40;18.30;99.90
4651;DHT22;2338;49.602;8.722;2022-10-22T14:24:26;18.40;99.90
4651;DHT22;2338;49.602;8.722;2022-10-22T14:27:13;18.30;99.90
4651;DHT22;2338;49.602;8.722;2022-10-22T14:29:59;18.30;99.90
4651;DHT22;2338;49.602;8.722;2022-10-22T14:32:45;18.30;99.90
4651;DHT22;2338;49.602;8.722;2022-10-22T14:35:33;18.30;99.90
4651;DHT22;2338;49.602;8.722;2022-10-22T14:38:19;18.20;99.90
4651;DHT22;2338;49.602;8.722;2022-10-22T14:41:13;18.20;99.90
4651;DHT22;2338;49.602;8.722;2022-10-22T14:43:59;18.20;99.90
4651;DHT22;2338;49.602;8.722;2022-10-22T14:46:45;18.20;99.90
4651;DHT22;2338;49.602;8.722;2022-10-22T14:49:31;18.30;99.90
4651;DHT22;2338;49.602;8.722;2022-10-22T14:52:18;18.20;99.90
4651;DHT22;2338;49.602;8.722;2022-10-22T14:55:05;18.30;99.90
4651;DHT22;2338;49.602;8.722;2022-10-22T14:57:51;18.40;99.90
4651;DHT22;2338;49.602;8.722;2022-10-22T15:00:36;18.30;99.90
4651;DHT22;2338;49.602;8.722;2022-10-22T15:03:22;18.40;99.90
4651;DHT22;2338;49.602;8.722;2022-10-22T15:06:08;18.40;99.90
4651;DHT22;2338;49.602;8.722;2022-10-22T15:08:55;18.40;99.90
4651;DHT22;2338;49.602;8.722;2022-10-22T15:11:40;18.30;99.90
4651;DHT22;2338;49.602;8.722;2022-10-22T15:14:26;18.30;99.90
4651;DHT22;2338;49.602;8.722;2022-10-22T15:17:12;18.20;99.90
4651;DHT22;2338;49.602;8.722;2022-10-22T15:19:58;18.10;99.90
4651;DHT22;2338;49.602;8.722;2022-10-22T15:22:47;18.00;99.90
4651;DHT22;2338;49.602;8.722;2022-10-22T15:25:34;17.90;99.90
4651;DHT22;2338;49.602;8.722;2022-10-22T15:28:20;17.80;99.90
4651;DHT22;2338;49.602;8.722;2022-10-22T15:31:06;17.60;99.90
4651;DHT22;2338;49.602;8.722;2022-10-22T15:33:52;17.30;99.90
4651;DHT22;2338;49.602;8.722;2022-10-22T15:36:37;17.30;99.90
4651;DHT22;2338;49.602;8.722;2022-10-22T15:39:23;17.20;99.90
4651;DHT22;2338;49.602;8.722;2022-10-22T15:42:11;17.00;99.90
4651;DHT22;2338;49.602;8.722;2022-10-22T15:44:58;17.00;99.90
4651;DHT22;2338;49.602;8.722;2022-10-22T15:47:46;16.90;99.90
4651;DHT22;2338;49.602;8.722;2022-10-22T15:50:36;16.80;99.90
4651;DHT22;2338;49.602;8.722;2022-10-22T15:53:22;16.60;99.90
4651;DHT22;2338;49.602;8.722;2022-10-22T15:56:09;16.50;99.90
4651;DHT22;2338;49.602;8.722;2022-10-22T15:58:57;16.50;99.90
4651;DHT22;2338;49.602;8.722;2022-10-22T16:01:44;16.40;99.90
4651;DHT22;2338;49.602;8.722;2022-10-22T16:04:30;16.30;99.90
4651;DHT22;2338;49.602;8.722;2022-10-22T16:07:15;16.20;99.90
4651;DHT22;2338;49.602;8.722;2022-10-22T16:10:01;16.10;99.90
4651;DHT22;2338;49.602;8.722;2022-10-22T16:12:46;16.00;99.90
4651;DHT22;2338;49.602;8.722;2022-10-22T16:15:36;16.00;99.90
4651;DHT22;2338;49.602;8.722;2022-10-22T16:18:21;15.90;99.90
4651;DHT22;2338;49.602;8.722;2022-10-22T16:21:11;15.80;99.90
4651;DHT22;2338;49.602;8.722;2022-10-22T16:23:59;15.60;99.90
4651;DHT22;2338;49.602;8.722;2022-10-22T16:26:45;15.50;99.90
4651;DHT22;2338;49.602;8.722;2022-10-22T16:29:30;15.50;99.90
4651;DHT22;2338;49.602;8.722;2022-10-22T16:32:17;15.50;99.90
4651;DHT22;2338;49.602;8.722;2022-10-22T16:35:04;15.40;99.90
4651;DHT22;2338;49.602;8.722;2022-10-22T16:37:49;15.30;99.90
4651;DHT22;2338;49.602;8.722;2022-10-22T16:40:35;15.20;99.90
4651;DHT22;2338;49.602;8.722;2022-10-22T16:43:21;15.10;99.90
4651;DHT22;2338;49.602;8.722;2022-10-22T16:46:07;15.00;99.90
4651;DHT22;2338;49.602;8.722;2022-10-22T16:48:54;15.00;99.90
4651;DHT22;2338;49.602;8.722;2022-10-22T16:51:39;15.00;99.90
4651;DHT22;2338;49.602;8.722;2022-10-22T16:54:25;15.00;99.90
4651;DHT22;2338;49.602;8.722;2022-10-22T16:57:11;15.00;99.90
4651;DHT22;2338;49.602;8.722;2022-10-22T16:59:57;15.00;99.90
4651;DHT22;2338;49.602;8.722;2022-10-22T17:02:42;14.90;99.90
4651;DHT22;2338;49.602;8.722;2022-10-22T17:05:29;14.80;99.90
4651;DHT22;2338;49.602;8.722;2022-10-22T17:08:15;14.80;99.90
4651;DHT22;2338;49.602;8.722;2022-10-22T17:11:07;14.80;99.90
4651;DHT22;2338;49.602;8.722;2022-10-22T17:13:53;14.70;99.90
4651;DHT22;2338;49.602;8.722;2022-10-22T17:16:39;14.60;99.90
4651;DHT22;2338;49.602;8.722;2022-10-22T17:19:24;14.60;99.90
4651;DHT22;2338;49.602;8.722;2022-10-22T17:22:11;14.50;99.90
4651;DHT22;2338;49.602;8.722;2022-10-22T17:25:08;14.50;99.90
4651;DHT22;2338;49.602;8.722;2022-10-22T17:27:55;14.40;99.90
4651;DHT22;2338;49.602;8.722;2022-10-22T17:30:41;14.40;99.90
4651;DHT22;2338;49.602;8.722;2022-10-22T17:33:27;14.50;99.90
4651;DHT22;2338;49.602;8.722;2022-10-22T17:36:13;14.50;99.90
4651;DHT22;2338;49.602;8.722;2022-10-22T17:39:02;14.50;99.90
4651;DHT22;2338;49.602;8.722;2022-10-22T17:41:48;14.40;99.90
4651;DHT22;2338;49.602;8.722;2022-10-22T17:47:20;14.40;99.90
4651;DHT22;2338;49.602;8.722;2022-10-22T17:50:07;14.20;99.90
4651;DHT22;2338;49.602;8.722;2022-10-22T17:52:53;14.10;99.90
4651;DHT22;2338;49.602;8.722;2022-10-22T17:55:40;14.10;99.90
4651;DHT22;2338;49.602;8.722;2022-10-22T17:58:25;14.10;99.90
4651;DHT22;2338;49.602;8.722;2022-10-22T18:01:19;14.30;99.90
4651;DHT22;2338;49.602;8.722;2022-10-22T18:04:06;14.10;99.90
4651;DHT22;2338;49.602;8.722;2022-10-22T18:06:52;14.00;99.90
4651;DHT22;2338;49.602;8.722;2022-10-22T18:09:39;13.90;99.90
4651;DHT22;2338;49.602;8.722;2022-10-22T18:12:27;13.90;99.90
4651;DHT22;2338;49.602;8.722;2022-10-22T18:15:13;14.00;99.90
4651;DHT22;2338;49.602;8.722;2022-10-22T18:17:59;14.00;99.90
4651;DHT22;2338;49.602;8.722;2022-10-22T18:20:47;14.00;99.90
4651;DHT22;2338;49.602;8.722;2022-10-22T18:23:33;13.90;99.90
4651;DHT22;2338;49.602;8.722;2022-10-22T18:26:20;13.80;99.90